sensor_id;sensor_type;location;lat;lon;timestamp;P1;durP1;ratioP1;P2;durP2;ratioP2
12880;SDS011;6508;53.786;9.996;2023-04-16T00:00:54;27.42;;;18.38;;
12880;SDS011;6508;53.786;9.996;2023-04-16T00:03:22;28.17;;;18.30;;
12880;SDS011;6508;53.786;9.996;2023-04-16T00:05:50;25.92;;;18.30;;
12880;SDS011;6508;53.786;9.996;2023-04-16T00:08:21;26.80;;;17.73;;
12880;SDS011;6508;53.786;9.996;2023-04-16T00:10:49;25.42;;;17.65;;
12880;SDS011;6508;53.786;9.996;2023-04-16T00:13:17;24.00;;;17.38;;
12880;SDS011;6508;53.786;9.996;2023-04-16T00:15:47;26.10;;;18.08;;
12880;SDS011;6508;53.786;9.996;2023-04-16T00:18:14;27.48;;;19.15;;
12880;SDS011;6508;53.786;9.996;2023-04-16T00:20:42;26.58;;;18.33;;
12880;SDS011;6508;53.786;9.996;2023-04-16T00:23:10;29.58;;;18.17;;
12880;SDS011;6508;53.786;9.996;2023-04-16T00:25:38;23.45;;;17.23;;
12880;SDS011;6508;53.786;9.996;2023-04-16T00:28:05;26.48;;;17.45;;
12880;SDS011;6508;53.786;9.996;2023-04-16T00:30:36;23.75;;;17.60;;
12880;SDS011;6508;53.786;9.996;2023-04-16T00:33:05;25.40;;;16.50;;
12880;SDS011;6508;53.786;9.996;2023-04-16T00:35:33;29.20;;;17.23;;
12880;SDS011;6508;53.786;9.996;2023-04-16T00:38:01;27.85;;;18.08;;
12880;SDS011;6508;53.786;9.996;2023-04-16T00:40:28;24.75;;;17.33;;
12880;SDS011;6508;53.786;9.996;2023-04-16T00:42:56;25.15;;;17.52;;
12880;SDS011;6508;53.786;9.996;2023-04-16T00:45:24;25.85;;;17.55;;
12880;SDS011;6508;53.786;9.996;2023-04-16T00:47:52;28.52;;;18.48;;
12880;SDS011;6508;53.786;9.996;2023-04-16T00:50:21;24.85;;;17.73;;
12880;SDS011;6508;53.786;9.996;2023-04-16T00:52:49;26.02;;;17.35;;
12880;SDS011;6508;53.786;9.996;2023-04-16T00:55:17;27.13;;;17.48;;
12880;SDS011;6508;53.786;9.996;2023-04-16T00:57:47;26.73;;;17.17;;
12880;SDS011;6508;53.786;9.996;2023-04-16T01:00:15;21.02;;;16.33;;
12880;SDS011;6508;53.786;9.996;2023-04-16T01:02:43;25.25;;;17.75;;
12880;SDS011;6508;53.786;9.996;2023-04-16T01:05:11;26.65;;;17.67;;
12880;SDS011;6508;53.786;9.996;2023-04-16T01:07:40;21.83;;;16.80;;
12880;SDS011;6508;53.786;9.996;2023-04-16T01:10:08;21.48;;;16.17;;
12880;SDS011;6508;53.786;9.996;2023-04-16T01:12:36;23.45;;;16.77;;
12880;SDS011;6508;53.786;9.996;2023-04-16T01:15:04;24.35;;;17.23;;
12880;SDS011;6508;53.786;9.996;2023-04-16T01:17:33;27.15;;;17.33;;
12880;SDS011;6508;53.786;9.996;2023-04-16T01:20:01;23.70;;;16.48;;
12880;SDS011;6508;53.786;9.996;2023-04-16T01:22:30;25.83;;;17.58;;
12880;SDS011;6508;53.786;9.996;2023-04-16T01:24:58;26.92;;;17.05;;
12880;SDS011;6508;53.786;9.996;2023-04-16T01:27:26;27.63;;;17.90;;
12880;SDS011;6508;53.786;9.996;2023-04-16T01:29:54;28.95;;;18.33;;
12880;SDS011;6508;53.786;9.996;2023-04-16T01:32:32;28.90;;;18.05;;
12880;SDS011;6508;53.786;9.996;2023-04-16T01:35:00;25.15;;;18.25;;
12880;SDS011;6508;53.786;9.996;2023-04-16T01:37:27;27.50;;;18.50;;
12880;SDS011;6508;53.786;9.996;2023-04-16T01:39:57;26.38;;;17.00;;
12880;SDS011;6508;53.786;9.996;2023-04-16T01:42:25;24.58;;;17.92;;
12880;SDS011;6508;53.786;9.996;2023-04-16T01:44:53;28.48;;;19.00;;
12880;SDS011;6508;53.786;9.996;2023-04-16T01:47:21;30.02;;;19.73;;
12880;SDS011;6508;53.786;9.996;2023-04-16T01:49:49;26.80;;;18.35;;
12880;SDS011;6508;53.786;9.996;2023-04-16T01:52:16;28.85;;;19.33;;
12880;SDS011;6508;53.786;9.996;2023-04-16T01:54:44;26.88;;;17.52;;
12880;SDS011;6508;53.786;9.996;2023-04-16T01:57:13;28.67;;;18.88;;
12880;SDS011;6508;53.786;9.996;2023-04-16T01:59:41;24.48;;;18.15;;
12880;SDS011;6508;53.786;9.996;2023-04-16T02:02:10;28.73;;;17.95;;
12880;SDS011;6508;53.786;9.996;2023-04-16T02:04:39;25.23;;;18.05;;
12880;SDS011;6508;53.786;9.996;2023-04-16T02:07:07;26.17;;;17.45;;
12880;SDS011;6508;53.786;9.996;2023-04-16T02:09:35;27.40;;;18.33;;
12880;SDS011;6508;53.786;9.996;2023-04-16T02:12:05;28.45;;;18.45;;
12880;SDS011;6508;53.786;9.996;2023-04-16T02:14:36;24.95;;;16.95;;
12880;SDS011;6508;53.786;9.996;2023-04-16T02:17:04;22.88;;;15.88;;
12880;SDS011;6508;53.786;9.996;2023-04-16T02:19:37;21.13;;;15.27;;
12880;SDS011;6508;53.786;9.996;2023-04-16T02:22:06;24.63;;;16.92;;
12880;SDS011;6508;53.786;9.996;2023-04-16T02:24:34;23.00;;;15.80;;
12880;SDS011;6508;53.786;9.996;2023-04-16T02:27:05;23.40;;;16.17;;
12880;SDS011;6508;53.786;9.996;2023-04-16T02:29:33;22.45;;;15.40;;
12880;SDS011;6508;53.786;9.996;2023-04-16T02:32:10;23.25;;;16.40;;
12880;SDS011;6508;53.786;9.996;2023-04-16T02:34:39;22.95;;;15.93;;
12880;SDS011;6508;53.786;9.996;2023-04-16T02:37:08;21.38;;;15.30;;
12880;SDS011;6508;53.786;9.996;2023-04-16T02:39:36;23.23;;;15.75;;
12880;SDS011;6508;53.786;9.996;2023-04-16T02:42:04;23.50;;;15.32;;
12880;SDS011;6508;53.786;9.996;2023-04-16T02:44:32;25.02;;;16.58;;
12880;SDS011;6508;53.786;9.996;2023-04-16T02:47:00;21.35;;;15.13;;
12880;SDS011;6508;53.786;9.996;2023-04-16T02:49:29;22.75;;;16.23;;
12880;SDS011;6508;53.786;9.996;2023-04-16T02:51:57;26.40;;;16.42;;
12880;SDS011;6508;53.786;9.996;2023-04-16T02:54:25;22.33;;;15.77;;
12880;SDS011;6508;53.786;9.996;2023-04-16T02:56:52;22.55;;;15.27;;
12880;SDS011;6508;53.786;9.996;2023-04-16T02:59:21;22.95;;;16.00;;
12880;SDS011;6508;53.786;9.996;2023-04-16T03:01:49;24.08;;;15.88;;
12880;SDS011;6508;53.786;9.996;2023-04-16T03:04:17;24.75;;;16.00;;
12880;SDS011;6508;53.786;9.996;2023-04-16T03:06:47;19.67;;;14.98;;
12880;SDS011;6508;53.786;9.996;2023-04-16T03:09:15;25.70;;;15.68;;
12880;SDS011;6508;53.786;9.996;2023-04-16T03:11:43;20.75;;;14.65;;
12880;SDS011;6508;53.786;9.996;2023-04-16T03:14:11;24.52;;;15.85;;
12880;SDS011;6508;53.786;9.996;2023-04-16T03:16:40;23.10;;;15.38;;
12880;SDS011;6508;53.786;9.996;2023-04-16T03:19:08;21.90;;;14.90;;
12880;SDS011;6508;53.786;9.996;2023-04-16T03:21:36;21.67;;;15.60;;
12880;SDS011;6508;53.786;9.996;2023-04-16T03:24:05;21.80;;;15.23;;
12880;SDS011;6508;53.786;9.996;2023-04-16T03:26:33;24.65;;;16.20;;
12880;SDS011;6508;53.786;9.996;2023-04-16T03:29:01;22.75;;;15.93;;
12880;SDS011;6508;53.786;9.996;2023-04-16T03:31:30;23.48;;;16.02;;
12880;SDS011;6508;53.786;9.996;2023-04-16T03:33:58;27.48;;;16.52;;
12880;SDS011;6508;53.786;9.996;2023-04-16T03:36:29;21.77;;;15.23;;
12880;SDS011;6508;53.786;9.996;2023-04-16T03:38:57;22.27;;;15.15;;
12880;SDS011;6508;53.786;9.996;2023-04-16T03:41:27;25.60;;;16.17;;
12880;SDS011;6508;53.786;9.996;2023-04-16T03:43:58;24.13;;;15.95;;
12880;SDS011;6508;53.786;9.996;2023-04-16T03:46:27;26.75;;;16.00;;
12880;SDS011;6508;53.786;9.996;2023-04-16T03:48:55;24.35;;;16.35;;
12880;SDS011;6508;53.786;9.996;2023-04-16T03:51:23;21.80;;;15.98;;
12880;SDS011;6508;53.786;9.996;2023-04-16T03:53:51;23.33;;;16.38;;
12880;SDS011;6508;53.786;9.996;2023-04-16T03:56:20;22.45;;;15.05;;
12880;SDS011;6508;53.786;9.996;2023-04-16T03:58:51;23.38;;;15.55;;
12880;SDS011;6508;53.786;9.996;2023-04-16T04:01:19;23.42;;;16.15;;
12880;SDS011;6508;53.786;9.996;2023-04-16T04:03:47;23.08;;;16.02;;
12880;SDS011;6508;53.786;9.996;2023-04-16T04:06:15;23.85;;;16.00;;
12880;SDS011;6508;53.786;9.996;2023-04-16T04:08:43;23.08;;;16.60;;
12880;SDS011;6508;53.786;9.996;2023-04-16T04:11:12;24.40;;;15.68;;
12880;SDS011;6508;53.786;9.996;2023-04-16T04:13:41;25.35;;;16.70;;
12880;SDS011;6508;53.786;9.996;2023-04-16T04:16:11;25.58;;;16.13;;
12880;SDS011;6508;53.786;9.996;2023-04-16T04:18:38;22.45;;;15.93;;
12880;SDS011;6508;53.786;9.996;2023-04-16T04:21:08;22.15;;;15.60;;
12880;SDS011;6508;53.786;9.996;2023-04-16T04:23:37;24.13;;;16.05;;
12880;SDS011;6508;53.786;9.996;2023-04-16T04:26:05;26.63;;;17.08;;
12880;SDS011;6508;53.786;9.996;2023-04-16T04:28:34;23.05;;;16.10;;
12880;SDS011;6508;53.786;9.996;2023-04-16T04:31:02;23.33;;;16.38;;
12880;SDS011;6508;53.786;9.996;2023-04-16T04:33:32;24.42;;;16.60;;
12880;SDS011;6508;53.786;9.996;2023-04-16T04:35:59;21.25;;;15.35;;
12880;SDS011;6508;53.786;9.996;2023-04-16T04:38:27;21.77;;;16.02;;
12880;SDS011;6508;53.786;9.996;2023-04-16T04:40:56;25.55;;;16.20;;
12880;SDS011;6508;53.786;9.996;2023-04-16T04:43:25;25.30;;;16.15;;
12880;SDS011;6508;53.786;9.996;2023-04-16T04:45:54;23.75;;;16.75;;
12880;SDS011;6508;53.786;9.996;2023-04-16T04:48:25;25.10;;;16.65;;
12880;SDS011;6508;53.786;9.996;2023-04-16T04:50:56;23.48;;;15.77;;
12880;SDS011;6508;53.786;9.996;2023-04-16T04:53:23;25.58;;;16.10;;
12880;SDS011;6508;53.786;9.996;2023-04-16T04:55:52;22.92;;;16.30;;
12880;SDS011;6508;53.786;9.996;2023-04-16T04:58:31;25.90;;;16.90;;
12880;SDS011;6508;53.786;9.996;2023-04-16T05:00:59;25.58;;;16.20;;
12880;SDS011;6508;53.786;9.996;2023-04-16T05:03:27;22.77;;;17.02;;
12880;SDS011;6508;53.786;9.996;2023-04-16T05:05:56;23.52;;;16.20;;
12880;SDS011;6508;53.786;9.996;2023-04-16T05:08:24;24.10;;;15.25;;
12880;SDS011;6508;53.786;9.996;2023-04-16T05:10:52;25.20;;;16.67;;
12880;SDS011;6508;53.786;9.996;2023-04-16T05:13:20;24.33;;;16.88;;
12880;SDS011;6508;53.786;9.996;2023-04-16T05:15:47;22.10;;;16.80;;
12880;SDS011;6508;53.786;9.996;2023-04-16T05:18:15;23.42;;;16.52;;
12880;SDS011;6508;53.786;9.996;2023-04-16T05:20:43;26.77;;;16.73;;
12880;SDS011;6508;53.786;9.996;2023-04-16T05:23:12;24.58;;;16.25;;
12880;SDS011;6508;53.786;9.996;2023-04-16T05:25:41;20.63;;;16.25;;
12880;SDS011;6508;53.786;9.996;2023-04-16T05:28:09;23.08;;;16.35;;
12880;SDS011;6508;53.786;9.996;2023-04-16T05:30:37;25.00;;;16.15;;
12880;SDS011;6508;53.786;9.996;2023-04-16T05:33:04;20.92;;;15.70;;
12880;SDS011;6508;53.786;9.996;2023-04-16T05:35:32;29.13;;;16.60;;
12880;SDS011;6508;53.786;9.996;2023-04-16T05:38:00;23.67;;;15.75;;
12880;SDS011;6508;53.786;9.996;2023-04-16T05:40:31;24.08;;;15.43;;
12880;SDS011;6508;53.786;9.996;2023-04-16T05:42:59;25.85;;;15.93;;
12880;SDS011;6508;53.786;9.996;2023-04-16T05:45:26;25.38;;;16.30;;
12880;SDS011;6508;53.786;9.996;2023-04-16T05:47:54;25.52;;;15.98;;
12880;SDS011;6508;53.786;9.996;2023-04-16T05:50:22;24.17;;;16.08;;
12880;SDS011;6508;53.786;9.996;2023-04-16T05:52:49;21.25;;;15.65;;
12880;SDS011;6508;53.786;9.996;2023-04-16T05:55:18;24.65;;;16.40;;
12880;SDS011;6508;53.786;9.996;2023-04-16T05:57:47;21.02;;;14.95;;
12880;SDS011;6508;53.786;9.996;2023-04-16T06:00:15;24.23;;;16.40;;
12880;SDS011;6508;53.786;9.996;2023-04-16T06:02:43;23.30;;;15.57;;
12880;SDS011;6508;53.786;9.996;2023-04-16T06:05:11;25.23;;;16.08;;
12880;SDS011;6508;53.786;9.996;2023-04-16T06:07:39;22.85;;;15.27;;
12880;SDS011;6508;53.786;9.996;2023-04-16T06:10:07;23.85;;;15.90;;
12880;SDS011;6508;53.786;9.996;2023-04-16T06:12:35;21.02;;;14.85;;
12880;SDS011;6508;53.786;9.996;2023-04-16T06:15:04;20.80;;;15.15;;
12880;SDS011;6508;53.786;9.996;2023-04-16T06:17:33;23.52;;;16.45;;
12880;SDS011;6508;53.786;9.996;2023-04-16T06:20:01;22.63;;;14.60;;
12880;SDS011;6508;53.786;9.996;2023-04-16T06:22:29;21.80;;;14.50;;
12880;SDS011;6508;53.786;9.996;2023-04-16T06:24:56;22.85;;;15.15;;
12880;SDS011;6508;53.786;9.996;2023-04-16T06:27:24;22.38;;;14.50;;
12880;SDS011;6508;53.786;9.996;2023-04-16T06:29:52;20.88;;;14.18;;
12880;SDS011;6508;53.786;9.996;2023-04-16T06:32:22;24.95;;;14.05;;
12880;SDS011;6508;53.786;9.996;2023-04-16T06:34:50;18.05;;;13.30;;
12880;SDS011;6508;53.786;9.996;2023-04-16T06:37:18;19.17;;;14.25;;
12880;SDS011;6508;53.786;9.996;2023-04-16T06:39:46;21.10;;;14.55;;
12880;SDS011;6508;53.786;9.996;2023-04-16T06:42:14;18.83;;;13.35;;
12880;SDS011;6508;53.786;9.996;2023-04-16T06:44:42;20.25;;;15.45;;
12880;SDS011;6508;53.786;9.996;2023-04-16T06:47:10;19.95;;;13.18;;
12880;SDS011;6508;53.786;9.996;2023-04-16T06:49:40;19.48;;;13.77;;
12880;SDS011;6508;53.786;9.996;2023-04-16T06:52:07;20.33;;;14.68;;
12880;SDS011;6508;53.786;9.996;2023-04-16T06:54:35;20.98;;;14.65;;
12880;SDS011;6508;53.786;9.996;2023-04-16T06:57:03;19.52;;;13.80;;
12880;SDS011;6508;53.786;9.996;2023-04-16T06:59:30;19.50;;;13.73;;
12880;SDS011;6508;53.786;9.996;2023-04-16T07:01:59;21.00;;;14.20;;
12880;SDS011;6508;53.786;9.996;2023-04-16T07:04:27;18.83;;;13.52;;
12880;SDS011;6508;53.786;9.996;2023-04-16T07:06:56;19.10;;;13.73;;
12880;SDS011;6508;53.786;9.996;2023-04-16T07:09:23;18.67;;;13.27;;
12880;SDS011;6508;53.786;9.996;2023-04-16T07:11:52;19.25;;;13.20;;
12880;SDS011;6508;53.786;9.996;2023-04-16T07:14:20;19.65;;;13.25;;
12880;SDS011;6508;53.786;9.996;2023-04-16T07:16:47;18.25;;;13.77;;
12880;SDS011;6508;53.786;9.996;2023-04-16T07:19:15;17.52;;;13.32;;
12880;SDS011;6508;53.786;9.996;2023-04-16T07:21:44;15.88;;;13.02;;
12880;SDS011;6508;53.786;9.996;2023-04-16T07:24:13;17.73;;;12.73;;
12880;SDS011;6508;53.786;9.996;2023-04-16T07:26:41;15.35;;;13.23;;
12880;SDS011;6508;53.786;9.996;2023-04-16T07:29:09;16.20;;;13.05;;
12880;SDS011;6508;53.786;9.996;2023-04-16T07:31:37;15.30;;;12.88;;
12880;SDS011;6508;53.786;9.996;2023-04-16T07:34:05;15.73;;;12.73;;
12880;SDS011;6508;53.786;9.996;2023-04-16T07:36:32;15.00;;;12.40;;
12880;SDS011;6508;53.786;9.996;2023-04-16T07:39:00;15.63;;;12.40;;
12880;SDS011;6508;53.786;9.996;2023-04-16T07:41:30;15.60;;;12.18;;
12880;SDS011;6508;53.786;9.996;2023-04-16T07:43:58;16.30;;;11.95;;
12880;SDS011;6508;53.786;9.996;2023-04-16T07:46:26;13.98;;;11.68;;
12880;SDS011;6508;53.786;9.996;2023-04-16T07:49:11;17.27;;;12.70;;
12880;SDS011;6508;53.786;9.996;2023-04-16T07:51:39;15.27;;;11.18;;
12880;SDS011;6508;53.786;9.996;2023-04-16T07:54:06;17.02;;;12.65;;
12880;SDS011;6508;53.786;9.996;2023-04-16T07:56:35;16.48;;;11.68;;
12880;SDS011;6508;53.786;9.996;2023-04-16T07:59:03;16.77;;;11.73;;
12880;SDS011;6508;53.786;9.996;2023-04-16T08:01:48;15.77;;;12.55;;
12880;SDS011;6508;53.786;9.996;2023-04-16T08:04:17;17.58;;;11.98;;
12880;SDS011;6508;53.786;9.996;2023-04-16T08:06:50;15.93;;;11.77;;
12880;SDS011;6508;53.786;9.996;2023-04-16T08:09:18;16.48;;;12.05;;
12880;SDS011;6508;53.786;9.996;2023-04-16T08:11:48;15.25;;;12.35;;
12880;SDS011;6508;53.786;9.996;2023-04-16T08:14:16;13.95;;;11.60;;
12880;SDS011;6508;53.786;9.996;2023-04-16T08:16:44;15.88;;;12.32;;
12880;SDS011;6508;53.786;9.996;2023-04-16T08:19:11;14.18;;;11.68;;
12880;SDS011;6508;53.786;9.996;2023-04-16T08:21:39;12.32;;;11.00;;
12880;SDS011;6508;53.786;9.996;2023-04-16T08:24:07;15.77;;;12.10;;
12880;SDS011;6508;53.786;9.996;2023-04-16T08:26:35;17.83;;;12.63;;
12880;SDS011;6508;53.786;9.996;2023-04-16T08:29:04;16.23;;;11.82;;
12880;SDS011;6508;53.786;9.996;2023-04-16T08:31:31;14.65;;;11.52;;
12880;SDS011;6508;53.786;9.996;2023-04-16T08:33:59;15.13;;;11.82;;
12880;SDS011;6508;53.786;9.996;2023-04-16T08:36:27;17.35;;;12.77;;
12880;SDS011;6508;53.786;9.996;2023-04-16T08:38:56;15.57;;;11.18;;
12880;SDS011;6508;53.786;9.996;2023-04-16T08:41:24;13.38;;;11.40;;
12880;SDS011;6508;53.786;9.996;2023-04-16T08:43:53;14.88;;;12.25;;
12880;SDS011;6508;53.786;9.996;2023-04-16T08:46:24;15.40;;;11.60;;
12880;SDS011;6508;53.786;9.996;2023-04-16T08:48:52;15.27;;;11.75;;
12880;SDS011;6508;53.786;9.996;2023-04-16T08:51:22;16.75;;;11.68;;
12880;SDS011;6508;53.786;9.996;2023-04-16T08:53:51;14.25;;;11.98;;
12880;SDS011;6508;53.786;9.996;2023-04-16T08:56:19;15.23;;;11.57;;
12880;SDS011;6508;53.786;9.996;2023-04-16T08:58:48;17.10;;;12.07;;
12880;SDS011;6508;53.786;9.996;2023-04-16T09:01:17;16.95;;;12.05;;
12880;SDS011;6508;53.786;9.996;2023-04-16T09:03:47;17.83;;;11.50;;
12880;SDS011;6508;53.786;9.996;2023-04-16T09:06:15;14.23;;;12.23;;
12880;SDS011;6508;53.786;9.996;2023-04-16T09:08:43;15.07;;;11.85;;
12880;SDS011;6508;53.786;9.996;2023-04-16T09:11:12;16.50;;;11.95;;
12880;SDS011;6508;53.786;9.996;2023-04-16T09:13:40;16.90;;;12.40;;
12880;SDS011;6508;53.786;9.996;2023-04-16T09:16:07;18.52;;;11.73;;
12880;SDS011;6508;53.786;9.996;2023-04-16T09:18:36;16.55;;;11.73;;
12880;SDS011;6508;53.786;9.996;2023-04-16T09:21:06;16.05;;;11.55;;
12880;SDS011;6508;53.786;9.996;2023-04-16T09:23:36;13.90;;;11.68;;
12880;SDS011;6508;53.786;9.996;2023-04-16T09:26:04;13.63;;;11.75;;
12880;SDS011;6508;53.786;9.996;2023-04-16T09:28:39;14.95;;;11.23;;
12880;SDS011;6508;53.786;9.996;2023-04-16T09:31:11;14.52;;;11.20;;
12880;SDS011;6508;53.786;9.996;2023-04-16T09:33:41;16.58;;;12.10;;
12880;SDS011;6508;53.786;9.996;2023-04-16T09:36:10;17.45;;;12.32;;
12880;SDS011;6508;53.786;9.996;2023-04-16T09:38:44;14.45;;;11.82;;
12880;SDS011;6508;53.786;9.996;2023-04-16T09:41:13;14.98;;;11.82;;
12880;SDS011;6508;53.786;9.996;2023-04-16T09:43:48;14.43;;;12.32;;
12880;SDS011;6508;53.786;9.996;2023-04-16T09:46:16;17.92;;;12.40;;
12880;SDS011;6508;53.786;9.996;2023-04-16T09:48:44;16.45;;;11.98;;
12880;SDS011;6508;53.786;9.996;2023-04-16T09:51:13;13.32;;;11.43;;
12880;SDS011;6508;53.786;9.996;2023-04-16T09:53:41;12.95;;;11.55;;
12880;SDS011;6508;53.786;9.996;2023-04-16T09:56:10;15.05;;;12.20;;
12880;SDS011;6508;53.786;9.996;2023-04-16T09:58:38;15.48;;;12.65;;
12880;SDS011;6508;53.786;9.996;2023-04-16T10:01:07;16.77;;;12.27;;
12880;SDS011;6508;53.786;9.996;2023-04-16T10:03:37;16.48;;;12.65;;
12880;SDS011;6508;53.786;9.996;2023-04-16T10:06:06;15.95;;;12.63;;
12880;SDS011;6508;53.786;9.996;2023-04-16T10:08:37;15.40;;;12.45;;
12880;SDS011;6508;53.786;9.996;2023-04-16T10:11:09;16.85;;;11.68;;
12880;SDS011;6508;53.786;9.996;2023-04-16T10:13:37;14.25;;;12.75;;
12880;SDS011;6508;53.786;9.996;2023-04-16T10:16:06;16.58;;;12.48;;
12880;SDS011;6508;53.786;9.996;2023-04-16T10:18:34;13.73;;;11.57;;
12880;SDS011;6508;53.786;9.996;2023-04-16T10:21:02;16.50;;;12.75;;
12880;SDS011;6508;53.786;9.996;2023-04-16T10:23:30;17.33;;;13.10;;
12880;SDS011;6508;53.786;9.996;2023-04-16T10:26:00;14.90;;;11.60;;
12880;SDS011;6508;53.786;9.996;2023-04-16T10:28:29;14.13;;;11.93;;
12880;SDS011;6508;53.786;9.996;2023-04-16T10:30:57;16.77;;;13.10;;
12880;SDS011;6508;53.786;9.996;2023-04-16T10:33:26;16.05;;;13.07;;
12880;SDS011;6508;53.786;9.996;2023-04-16T10:36:06;18.00;;;13.60;;
12880;SDS011;6508;53.786;9.996;2023-04-16T10:38:37;16.85;;;13.32;;
12880;SDS011;6508;53.786;9.996;2023-04-16T10:41:06;16.85;;;13.18;;
12880;SDS011;6508;53.786;9.996;2023-04-16T10:43:38;19.23;;;13.40;;
12880;SDS011;6508;53.786;9.996;2023-04-16T10:46:16;15.95;;;12.93;;
12880;SDS011;6508;53.786;9.996;2023-04-16T10:48:46;16.50;;;13.13;;
12880;SDS011;6508;53.786;9.996;2023-04-16T10:51:22;18.23;;;14.00;;
12880;SDS011;6508;53.786;9.996;2023-04-16T10:53:52;16.42;;;12.93;;
12880;SDS011;6508;53.786;9.996;2023-04-16T10:56:25;16.83;;;13.85;;
12880;SDS011;6508;53.786;9.996;2023-04-16T10:58:53;18.63;;;14.38;;
12880;SDS011;6508;53.786;9.996;2023-04-16T11:01:28;16.23;;;13.57;;
12880;SDS011;6508;53.786;9.996;2023-04-16T11:03:57;17.63;;;14.38;;
12880;SDS011;6508;53.786;9.996;2023-04-16T11:06:27;17.35;;;14.40;;
12880;SDS011;6508;53.786;9.996;2023-04-16T11:08:55;18.10;;;14.30;;
12880;SDS011;6508;53.786;9.996;2023-04-16T11:11:24;17.40;;;14.02;;
12880;SDS011;6508;53.786;9.996;2023-04-16T11:13:53;18.52;;;14.25;;
12880;SDS011;6508;53.786;9.996;2023-04-16T11:16:23;17.98;;;14.73;;
12880;SDS011;6508;53.786;9.996;2023-04-16T11:18:51;18.30;;;13.85;;
12880;SDS011;6508;53.786;9.996;2023-04-16T11:21:22;20.02;;;14.57;;
12880;SDS011;6508;53.786;9.996;2023-04-16T11:23:51;18.30;;;14.27;;
12880;SDS011;6508;53.786;9.996;2023-04-16T11:26:25;15.88;;;14.15;;
12880;SDS011;6508;53.786;9.996;2023-04-16T11:28:53;18.83;;;15.40;;
12880;SDS011;6508;53.786;9.996;2023-04-16T11:31:22;18.63;;;14.43;;
12880;SDS011;6508;53.786;9.996;2023-04-16T11:33:50;20.95;;;15.93;;
12880;SDS011;6508;53.786;9.996;2023-04-16T11:36:18;18.95;;;14.77;;
12880;SDS011;6508;53.786;9.996;2023-04-16T11:38:46;19.15;;;14.57;;
12880;SDS011;6508;53.786;9.996;2023-04-16T11:41:18;17.33;;;13.70;;
12880;SDS011;6508;53.786;9.996;2023-04-16T11:43:48;21.33;;;15.00;;
12880;SDS011;6508;53.786;9.996;2023-04-16T11:46:16;19.42;;;14.40;;
12880;SDS011;6508;53.786;9.996;2023-04-16T11:48:53;17.20;;;13.93;;
12880;SDS011;6508;53.786;9.996;2023-04-16T11:51:22;17.85;;;13.80;;
12880;SDS011;6508;53.786;9.996;2023-04-16T11:53:50;19.35;;;14.55;;
12880;SDS011;6508;53.786;9.996;2023-04-16T11:56:25;21.08;;;13.82;;
12880;SDS011;6508;53.786;9.996;2023-04-16T11:59:08;19.65;;;13.82;;
12880;SDS011;6508;53.786;9.996;2023-04-16T12:01:37;19.20;;;14.32;;
12880;SDS011;6508;53.786;9.996;2023-04-16T12:04:06;23.73;;;16.83;;
12880;SDS011;6508;53.786;9.996;2023-04-16T12:06:35;24.73;;;17.90;;
12880;SDS011;6508;53.786;9.996;2023-04-16T12:11:49;21.92;;;16.27;;
12880;SDS011;6508;53.786;9.996;2023-04-16T12:14:18;21.60;;;16.10;;
12880;SDS011;6508;53.786;9.996;2023-04-16T12:16:46;20.50;;;15.02;;
12880;SDS011;6508;53.786;9.996;2023-04-16T12:19:15;17.33;;;14.65;;
12880;SDS011;6508;53.786;9.996;2023-04-16T12:21:43;17.38;;;13.95;;
12880;SDS011;6508;53.786;9.996;2023-04-16T12:24:13;16.27;;;13.00;;
12880;SDS011;6508;53.786;9.996;2023-04-16T12:26:43;16.60;;;12.80;;
12880;SDS011;6508;53.786;9.996;2023-04-16T12:29:15;18.02;;;13.27;;
12880;SDS011;6508;53.786;9.996;2023-04-16T12:31:45;15.05;;;13.35;;
12880;SDS011;6508;53.786;9.996;2023-04-16T12:34:13;17.25;;;13.10;;
12880;SDS011;6508;53.786;9.996;2023-04-16T12:36:41;18.48;;;14.07;;
12880;SDS011;6508;53.786;9.996;2023-04-16T12:39:10;17.88;;;13.57;;
12880;SDS011;6508;53.786;9.996;2023-04-16T12:41:39;23.05;;;14.60;;
12880;SDS011;6508;53.786;9.996;2023-04-16T12:44:09;18.38;;;13.90;;
12880;SDS011;6508;53.786;9.996;2023-04-16T12:46:38;17.50;;;14.02;;
12880;SDS011;6508;53.786;9.996;2023-04-16T12:49:08;15.80;;;13.75;;
12880;SDS011;6508;53.786;9.996;2023-04-16T12:51:37;17.02;;;14.35;;
12880;SDS011;6508;53.786;9.996;2023-04-16T12:54:06;20.75;;;14.25;;
12880;SDS011;6508;53.786;9.996;2023-04-16T12:56:34;19.35;;;13.68;;
12880;SDS011;6508;53.786;9.996;2023-04-16T12:59:02;15.38;;;13.70;;
12880;SDS011;6508;53.786;9.996;2023-04-16T13:01:30;15.82;;;13.70;;
12880;SDS011;6508;53.786;9.996;2023-04-16T13:03:59;15.98;;;12.93;;
12880;SDS011;6508;53.786;9.996;2023-04-16T13:06:28;17.42;;;13.70;;
12880;SDS011;6508;53.786;9.996;2023-04-16T13:08:58;16.15;;;13.82;;
12880;SDS011;6508;53.786;9.996;2023-04-16T13:11:26;16.80;;;12.82;;
12880;SDS011;6508;53.786;9.996;2023-04-16T13:13:54;15.10;;;12.98;;
12880;SDS011;6508;53.786;9.996;2023-04-16T13:16:22;14.55;;;12.23;;
12880;SDS011;6508;53.786;9.996;2023-04-16T13:18:50;13.90;;;11.93;;
12880;SDS011;6508;53.786;9.996;2023-04-16T13:21:18;15.73;;;13.10;;
12880;SDS011;6508;53.786;9.996;2023-04-16T13:23:47;14.13;;;12.68;;
12880;SDS011;6508;53.786;9.996;2023-04-16T13:26:15;15.52;;;13.48;;
12880;SDS011;6508;53.786;9.996;2023-04-16T13:28:43;16.67;;;13.13;;
12880;SDS011;6508;53.786;9.996;2023-04-16T13:31:11;15.18;;;13.10;;
12880;SDS011;6508;53.786;9.996;2023-04-16T13:33:39;16.30;;;13.32;;
12880;SDS011;6508;53.786;9.996;2023-04-16T13:36:06;17.40;;;13.60;;
12880;SDS011;6508;53.786;9.996;2023-04-16T13:38:34;15.75;;;13.60;;
12880;SDS011;6508;53.786;9.996;2023-04-16T13:41:04;16.88;;;13.25;;
12880;SDS011;6508;53.786;9.996;2023-04-16T13:43:32;15.13;;;13.13;;
12880;SDS011;6508;53.786;9.996;2023-04-16T13:46:00;15.30;;;12.45;;
12880;SDS011;6508;53.786;9.996;2023-04-16T13:48:28;15.63;;;12.18;;
12880;SDS011;6508;53.786;9.996;2023-04-16T13:50:56;14.10;;;11.95;;
12880;SDS011;6508;53.786;9.996;2023-04-16T13:53:24;15.73;;;13.18;;
12880;SDS011;6508;53.786;9.996;2023-04-16T13:55:51;16.42;;;13.55;;
12880;SDS011;6508;53.786;9.996;2023-04-16T13:58:20;15.20;;;12.85;;
12880;SDS011;6508;53.786;9.996;2023-04-16T14:00:48;14.27;;;12.27;;
12880;SDS011;6508;53.786;9.996;2023-04-16T14:03:16;14.88;;;12.90;;
12880;SDS011;6508;53.786;9.996;2023-04-16T14:05:44;17.45;;;14.07;;
12880;SDS011;6508;53.786;9.996;2023-04-16T14:08:12;14.50;;;12.88;;
12880;SDS011;6508;53.786;9.996;2023-04-16T14:10:42;16.70;;;12.77;;
12880;SDS011;6508;53.786;9.996;2023-04-16T14:13:10;17.10;;;12.85;;
12880;SDS011;6508;53.786;9.996;2023-04-16T14:15:39;18.38;;;14.13;;
12880;SDS011;6508;53.786;9.996;2023-04-16T14:18:07;15.82;;;13.18;;
12880;SDS011;6508;53.786;9.996;2023-04-16T14:20:35;14.27;;;12.13;;
12880;SDS011;6508;53.786;9.996;2023-04-16T14:23:05;17.38;;;13.23;;
12880;SDS011;6508;53.786;9.996;2023-04-16T14:25:32;15.32;;;12.43;;
12880;SDS011;6508;53.786;9.996;2023-04-16T14:28:00;15.43;;;13.05;;
12880;SDS011;6508;53.786;9.996;2023-04-16T14:30:28;14.50;;;12.88;;
12880;SDS011;6508;53.786;9.996;2023-04-16T14:32:57;14.00;;;12.27;;
12880;SDS011;6508;53.786;9.996;2023-04-16T14:35:25;14.85;;;13.20;;
12880;SDS011;6508;53.786;9.996;2023-04-16T14:37:53;13.40;;;11.63;;
12880;SDS011;6508;53.786;9.996;2023-04-16T14:40:20;15.38;;;13.50;;
12880;SDS011;6508;53.786;9.996;2023-04-16T14:42:48;15.52;;;13.00;;
12880;SDS011;6508;53.786;9.996;2023-04-16T14:45:16;16.88;;;13.95;;